createdAt,value
2023-05-02T00:02:03.674Z,100.00
2023-05-02T00:04:31.183Z,100.00
2023-05-02T00:06:58.694Z,100.00
2023-05-02T00:09:26.240Z,100.00
2023-05-02T00:11:53.660Z,100.00
2023-05-02T00:14:21.063Z,100.00
2023-05-02T00:16:48.622Z,100.00
2023-05-02T00:19:16.882Z,100.00
2023-05-02T00:21:44.311Z,100.00
2023-05-02T00:24:11.700Z,100.00
2023-05-02T00:26:39.160Z,100.00
2023-05-02T00:29:08.064Z,100.00
2023-05-02T00:31:36.360Z,100.00
2023-05-02T00:34:03.860Z,100.00
2023-05-02T00:36:31.291Z,100.00
2023-05-02T00:38:58.723Z,100.00
2023-05-02T00:41:26.144Z,100.00
2023-05-02T00:43:53.634Z,100.00
2023-05-02T00:46:21.074Z,100.00
2023-05-02T00:48:48.465Z,100.00
2023-05-02T00:51:15.930Z,100.00
2023-05-02T00:53:43.493Z,100.00
2023-05-02T00:56:10.940Z,100.00
2023-05-02T00:58:39.762Z,100.00
2023-05-02T01:01:07.191Z,100.00
2023-05-02T01:03:47.316Z,100.00
2023-05-02T01:06:35.088Z,100.00
2023-05-02T01:09:21.239Z,100.00
2023-05-02T01:11:48.575Z,100.00
2023-05-02T01:14:16.157Z,100.00
2023-05-02T01:16:45.809Z,100.00
2023-05-02T01:19:45.854Z,100.00
2023-05-02T01:22:14.654Z,100.00
2023-05-02T01:25:00.949Z,100.00
2023-05-02T01:27:28.362Z,100.00
2023-05-02T01:29:58.240Z,100.00
2023-05-02T01:32:25.950Z,100.00
2023-05-02T01:34:54.251Z,100.00
2023-05-02T01:37:22.609Z,100.00
2023-05-02T01:39:50.802Z,100.00
2023-05-02T01:42:19.136Z,100.00
2023-05-02T01:44:47.263Z,100.00
2023-05-02T01:47:15.620Z,100.00
2023-05-02T01:49:44.471Z,100.00
2023-05-02T01:52:12.769Z,100.00
2023-05-02T01:54:41.041Z,100.00
2023-05-02T01:57:09.812Z,100.00
2023-05-02T01:59:37.974Z,100.00
2023-05-02T02:02:07.216Z,100.00
2023-05-02T02:04:36.429Z,100.00
2023-05-02T02:07:07.222Z,100.00
2023-05-02T02:09:34.647Z,100.00
2023-05-02T02:12:12.219Z,100.00
2023-05-02T02:14:41.058Z,100.00
2023-05-02T02:17:13.449Z,100.00
2023-05-02T02:19:41.946Z,100.00
2023-05-02T02:22:09.809Z,100.00
2023-05-02T02:24:38.716Z,100.00
2023-05-02T02:27:06.142Z,100.00
2023-05-02T02:29:33.780Z,100.00
2023-05-02T02:32:01.198Z,100.00
2023-05-02T02:34:28.633Z,100.00
2023-05-02T02:37:02.648Z,100.00
2023-05-02T02:39:48.684Z,100.00
2023-05-02T02:42:19.829Z,100.00
2023-05-02T02:44:50.018Z,100.00
2023-05-02T02:47:23.327Z,100.00
2023-05-02T02:49:52.536Z,100.00
2023-05-02T02:52:19.947Z,100.00
2023-05-02T02:54:50.059Z,100.00
2023-05-02T02:57:19.766Z,100.00
2023-05-02T02:59:55.756Z,100.00
2023-05-02T03:02:28.278Z,100.00
2023-05-02T03:04:55.968Z,100.00
2023-05-02T03:07:23.449Z,100.00
2023-05-02T03:09:50.913Z,100.00
2023-05-02T03:12:18.397Z,100.00
2023-05-02T03:14:45.995Z,100.00
2023-05-02T03:17:13.542Z,100.00
2023-05-02T03:19:41.042Z,100.00
2023-05-02T03:22:08.473Z,100.00
2023-05-02T03:24:35.891Z,100.00
2023-05-02T03:27:03.314Z,100.00
2023-05-02T03:29:30.763Z,100.00
2023-05-02T03:31:58.306Z,100.00
2023-05-02T03:34:25.825Z,100.00
2023-05-02T03:36:53.214Z,100.00
2023-05-02T03:39:20.669Z,100.00
2023-05-02T03:41:48.558Z,100.00
2023-05-02T03:44:15.971Z,100.00
2023-05-02T03:46:43.403Z,100.00
2023-05-02T03:49:10.993Z,100.00
2023-05-02T03:51:38.476Z,100.00
2023-05-02T03:54:05.867Z,100.00
2023-05-02T03:56:33.309Z,100.00
2023-05-02T03:59:01.330Z,100.00
2023-05-02T04:01:28.990Z,100.00
2023-05-02T04:03:56.417Z,100.00
2023-05-02T04:06:23.929Z,100.00
2023-05-02T04:08:51.416Z,100.00
2023-05-02T04:11:18.879Z,100.00
2023-05-02T04:13:46.315Z,100.00
2023-05-02T04:16:13.800Z,100.00
2023-05-02T04:18:41.158Z,100.00
2023-05-02T04:21:09.226Z,100.00
2023-05-02T04:23:36.650Z,100.00
2023-05-02T04:26:04.137Z,100.00
2023-05-02T04:28:31.630Z,100.00
2023-05-02T04:30:59.327Z,100.00
2023-05-02T04:33:26.734Z,100.00
2023-05-02T04:35:54.156Z,100.00
2023-05-02T04:38:21.613Z,100.00
2023-05-02T04:40:51.060Z,100.00
2023-05-02T04:43:18.497Z,100.00
2023-05-02T04:45:46.229Z,100.00
2023-05-02T04:48:14.040Z,100.00
2023-05-02T04:50:41.433Z,100.00
2023-05-02T04:53:08.790Z,100.00
2023-05-02T04:55:36.226Z,100.00
2023-05-02T04:58:04.550Z,100.00
2023-05-02T05:00:31.987Z,100.00
2023-05-02T05:03:00.933Z,100.00
2023-05-02T05:05:29.312Z,100.00
2023-05-02T05:07:56.805Z,100.00
2023-05-02T05:10:24.201Z,100.00
2023-05-02T05:12:51.642Z,100.00
2023-05-02T05:15:21.885Z,100.00
2023-05-02T05:17:49.461Z,100.00
2023-05-02T05:20:16.830Z,100.00
2023-05-02T05:22:44.312Z,100.00
2023-05-02T05:25:12.217Z,100.00
2023-05-02T05:27:39.820Z,100.00
2023-05-02T05:30:08.852Z,100.00
2023-05-02T05:32:36.631Z,100.00
2023-05-02T05:35:04.709Z,100.00
2023-05-02T05:37:32.115Z,100.00
2023-05-02T05:39:59.848Z,100.00
2023-05-02T05:42:27.568Z,100.00
2023-05-02T05:44:55.027Z,100.00
2023-05-02T05:47:23.056Z,100.00
2023-05-02T05:49:57.438Z,100.00
2023-05-02T05:52:25.130Z,100.00
2023-05-02T05:54:56.772Z,100.00
2023-05-02T05:57:24.456Z,100.00
2023-05-02T05:59:52.988Z,100.00
2023-05-02T06:02:20.821Z,100.00
2023-05-02T06:04:48.519Z,100.00
2023-05-02T06:07:16.177Z,100.00
2023-05-02T06:09:43.644Z,100.00
2023-05-02T06:12:11.058Z,100.00
2023-05-02T06:14:38.472Z,100.00
2023-05-02T06:17:05.912Z,100.00
2023-05-02T06:19:33.309Z,100.00
2023-05-02T06:22:00.699Z,100.00
2023-05-02T06:24:28.169Z,100.00
2023-05-02T06:26:55.621Z,100.00
2023-05-02T06:29:23.164Z,100.00
2023-05-02T06:31:51.467Z,100.00
2023-05-02T06:34:19.038Z,100.00
2023-05-02T06:36:46.548Z,100.00
2023-05-02T06:39:13.993Z,100.00
2023-05-02T06:41:41.755Z,98.43
2023-05-02T06:44:09.224Z,95.31
2023-05-02T06:46:36.946Z,94.96
2023-05-02T06:49:04.480Z,98.18
2023-05-02T06:51:31.925Z,99.89
2023-05-02T06:53:59.394Z,100.00
2023-05-02T06:56:26.927Z,100.00
2023-05-02T06:58:54.407Z,100.00
2023-05-02T07:01:21.871Z,100.00
2023-05-02T07:03:49.397Z,100.00
2023-05-02T07:06:17.037Z,100.00
2023-05-02T07:08:44.467Z,100.00
2023-05-02T07:11:11.902Z,100.00
2023-05-02T07:13:39.340Z,100.00
2023-05-02T07:16:07.246Z,100.00
2023-05-02T07:18:34.688Z,100.00
2023-05-02T07:21:02.167Z,100.00
2023-05-02T07:23:29.616Z,100.00
2023-05-02T07:25:57.158Z,100.00
2023-05-02T07:28:24.552Z,100.00
2023-05-02T07:30:52.252Z,100.00
2023-05-02T07:33:19.702Z,100.00
2023-05-02T07:35:47.305Z,100.00
2023-05-02T07:38:14.719Z,100.00
2023-05-02T07:40:43.423Z,100.00
2023-05-02T07:43:11.397Z,100.00
2023-05-02T07:45:38.948Z,100.00
2023-05-02T07:48:06.620Z,100.00
2023-05-02T07:50:34.212Z,100.00
2023-05-02T07:53:01.934Z,100.00
2023-05-02T07:55:30.534Z,100.00
2023-05-02T07:57:58.017Z,100.00
2023-05-02T08:00:25.568Z,100.00
2023-05-02T08:02:53.141Z,100.00
2023-05-02T08:05:20.836Z,100.00
2023-05-02T08:07:48.272Z,100.00
2023-05-02T08:10:15.758Z,100.00
2023-05-02T08:12:43.573Z,100.00
2023-05-02T08:15:12.946Z,100.00
2023-05-02T08:17:40.435Z,100.00
2023-05-02T08:20:08.249Z,100.00
2023-05-02T08:22:35.698Z,100.00
2023-05-02T08:25:03.186Z,100.00
2023-05-02T08:27:30.647Z,100.00
2023-05-02T08:29:59.403Z,98.90
2023-05-02T08:32:30.140Z,98.55
2023-05-02T08:34:57.847Z,95.33
2023-05-02T08:37:25.805Z,96.64
2023-05-02T08:39:53.264Z,97.07
2023-05-02T08:42:21.725Z,94.55
2023-05-02T08:44:52.483Z,94.09
2023-05-02T08:47:21.708Z,92.36
2023-05-02T08:49:49.810Z,89.68
2023-05-02T08:52:18.379Z,89.21
2023-05-02T08:54:46.273Z,89.17
2023-05-02T08:57:13.742Z,87.33
2023-05-02T08:59:41.224Z,87.92
2023-05-02T09:02:19.059Z,83.31
2023-05-02T09:04:52.638Z,79.00
2023-05-02T09:07:20.008Z,78.79
2023-05-02T09:09:47.492Z,77.18
2023-05-02T09:12:16.343Z,79.17
2023-05-02T09:14:44.848Z,82.86
2023-05-02T09:17:12.297Z,83.64
2023-05-02T09:19:39.722Z,83.65
2023-05-02T09:22:07.183Z,81.07
2023-05-02T09:24:34.874Z,79.82
2023-05-02T09:27:02.728Z,77.75
2023-05-02T09:29:35.899Z,74.97
2023-05-02T09:32:04.292Z,72.57
2023-05-02T09:34:31.971Z,73.48
2023-05-02T09:36:59.438Z,71.05
2023-05-02T09:39:29.092Z,66.93
2023-05-02T09:41:56.892Z,66.92
2023-05-02T09:44:25.317Z,64.66
2023-05-02T09:46:53.556Z,63.29
2023-05-02T09:49:39.738Z,58.27
2023-05-02T09:52:13.944Z,54.15
2023-05-02T09:54:41.508Z,52.65
2023-05-02T09:57:10.616Z,49.09
2023-05-02T09:59:38.113Z,47.29
2023-05-02T10:02:07.223Z,44.92
2023-05-02T10:04:35.236Z,46.32
2023-05-02T10:07:03.503Z,46.25
2023-05-02T10:09:32.589Z,46.65
2023-05-02T10:12:05.035Z,48.71
2023-05-02T10:14:32.872Z,44.88
2023-05-02T10:17:06.555Z,44.14
2023-05-02T10:19:43.192Z,41.63
2023-05-02T10:22:11.582Z,42.48
2023-05-02T10:24:39.608Z,43.17
2023-05-02T10:27:07.024Z,45.24
2023-05-02T10:29:34.866Z,47.23
2023-05-02T10:32:04.574Z,47.74
2023-05-02T10:34:33.809Z,47.48
2023-05-02T10:37:02.289Z,46.38
2023-05-02T10:39:30.100Z,46.44
2023-05-02T10:41:59.098Z,44.88
2023-05-02T10:44:40.547Z,43.30
2023-05-02T10:47:27.555Z,42.72
2023-05-02T10:49:56.894Z,43.08
2023-05-02T10:52:27.499Z,42.14
2023-05-02T10:55:14.604Z,40.18
2023-05-02T10:58:00.923Z,40.51
2023-05-02T11:00:35.185Z,41.83
2023-05-02T11:03:03.548Z,41.50
2023-05-02T11:05:31.131Z,41.52
2023-05-02T11:08:17.184Z,39.69
2023-05-02T11:10:46.335Z,39.99
2023-05-02T11:13:13.806Z,41.12
2023-05-02T11:15:41.293Z,39.80
2023-05-02T11:18:09.753Z,39.85
2023-05-02T11:20:39.490Z,39.32
2023-05-02T11:23:16.458Z,39.27
2023-05-02T11:25:45.159Z,39.31
2023-05-02T11:28:31.437Z,38.69
2023-05-02T11:30:59.040Z,38.66
2023-05-02T11:33:26.703Z,39.65
2023-05-02T11:35:54.124Z,40.22
2023-05-02T11:38:22.222Z,39.91
2023-05-02T11:40:57.514Z,39.84
2023-05-02T11:43:26.160Z,36.23
2023-05-02T11:45:54.354Z,37.33
2023-05-02T11:48:23.277Z,36.02
2023-05-02T11:50:52.125Z,36.43
2023-05-02T11:53:22.403Z,39.22
2023-05-02T11:55:57.317Z,37.72
2023-05-02T11:58:26.155Z,38.37
2023-05-02T12:00:54.300Z,37.81
2023-05-02T12:03:31.858Z,36.81
2023-05-02T12:06:09.472Z,37.43
2023-05-02T12:08:37.052Z,37.77
2023-05-02T12:11:04.469Z,36.50
2023-05-02T12:13:31.909Z,35.95
2023-05-02T12:15:59.538Z,37.23
2023-05-02T12:18:27.457Z,38.34
2023-05-02T12:20:56.080Z,35.78
2023-05-02T12:23:25.933Z,34.74
2023-05-02T12:25:53.547Z,35.44
2023-05-02T12:28:23.827Z,35.85
2023-05-02T12:30:51.864Z,35.81
2023-05-02T12:33:19.652Z,37.95
2023-05-02T12:35:48.097Z,37.33
2023-05-02T12:38:20.393Z,37.34
2023-05-02T12:40:48.992Z,36.61
2023-05-02T12:43:16.463Z,36.09
2023-05-02T12:45:43.864Z,36.15
2023-05-02T12:48:24.250Z,35.12
2023-05-02T12:50:51.874Z,36.20
2023-05-02T12:53:19.399Z,35.14
2023-05-02T12:55:46.876Z,34.10
2023-05-02T12:58:14.646Z,35.67
2023-05-02T13:00:44.796Z,36.88
2023-05-02T13:03:13.093Z,36.75
2023-05-02T13:05:40.756Z,35.43
2023-05-02T13:08:08.119Z,35.90
2023-05-02T13:10:35.537Z,34.81
2023-05-02T13:13:03.567Z,33.76
2023-05-02T13:15:31.037Z,35.02
2023-05-02T13:17:58.628Z,36.26
2023-05-02T13:20:26.132Z,35.04
2023-05-02T13:22:53.875Z,34.36
2023-05-02T13:25:21.504Z,33.87
2023-05-02T13:27:48.924Z,35.50
2023-05-02T13:30:16.369Z,36.19
2023-05-02T13:32:43.813Z,36.32
2023-05-02T13:35:13.938Z,37.97
2023-05-02T13:37:41.934Z,36.33
2023-05-02T13:40:09.932Z,37.18
2023-05-02T13:42:37.419Z,37.18
2023-05-02T13:45:06.576Z,37.63
2023-05-02T13:47:34.164Z,37.59
2023-05-02T13:50:01.964Z,37.41
2023-05-02T13:52:29.691Z,37.33
2023-05-02T13:54:57.071Z,38.14
2023-05-02T13:57:24.634Z,37.96
2023-05-02T13:59:52.528Z,36.57
2023-05-02T14:02:19.980Z,36.21
2023-05-02T14:04:47.388Z,36.51
2023-05-02T14:07:14.865Z,38.42
2023-05-02T14:09:42.292Z,38.54
2023-05-02T14:12:10.305Z,39.22
2023-05-02T14:14:38.158Z,37.99
2023-05-02T14:17:05.667Z,39.72
2023-05-02T14:19:33.067Z,40.08
2023-05-02T14:22:00.603Z,38.84
2023-05-02T14:24:27.987Z,40.58
2023-05-02T14:26:55.486Z,40.85
2023-05-02T14:29:22.963Z,41.46
2023-05-02T14:31:50.469Z,42.50
2023-05-02T14:34:18.063Z,43.86
2023-05-02T14:36:45.565Z,43.57
2023-05-02T14:39:13.199Z,43.03
2023-05-02T14:41:40.678Z,43.70
2023-05-02T14:44:08.093Z,45.19
2023-05-02T14:46:35.677Z,46.41
2023-05-02T14:49:03.206Z,47.25
2023-05-02T14:51:31.837Z,49.20
2023-05-02T14:53:59.831Z,46.99
2023-05-02T14:56:27.513Z,46.12
2023-05-02T14:58:55.081Z,48.29
2023-05-02T15:01:23.313Z,47.48
2023-05-02T15:04:06.007Z,45.65
2023-05-02T15:06:35.179Z,47.57
2023-05-02T15:09:03.216Z,48.78
2023-05-02T15:11:32.199Z,49.09
2023-05-02T15:13:59.798Z,48.72
2023-05-02T15:16:28.427Z,47.95
2023-05-02T15:18:56.038Z,49.30
2023-05-02T15:21:23.787Z,49.59
2023-05-02T15:23:51.430Z,48.67
2023-05-02T15:26:18.986Z,49.96
2023-05-02T15:28:47.430Z,49.48
2023-05-02T15:31:19.866Z,48.43
2023-05-02T15:33:47.260Z,49.95
2023-05-02T15:36:17.124Z,49.71
2023-05-02T15:38:44.734Z,49.80
2023-05-02T15:41:12.112Z,49.45
2023-05-02T15:43:39.549Z,50.30
2023-05-02T15:46:09.424Z,49.73
2023-05-02T15:48:38.761Z,50.00
2023-05-02T15:51:06.500Z,52.14
2023-05-02T15:53:34.691Z,52.24
2023-05-02T15:56:02.159Z,53.11
2023-05-02T15:58:29.627Z,50.98
2023-05-02T16:00:57.115Z,50.68
2023-05-02T16:03:24.535Z,50.86
2023-05-02T16:05:53.776Z,48.88
2023-05-02T16:08:21.349Z,48.13
2023-05-02T16:10:48.792Z,47.73
2023-05-02T16:13:16.296Z,49.54
2023-05-02T16:15:43.827Z,47.31
2023-05-02T16:18:11.528Z,47.62
2023-05-02T16:20:39.699Z,48.03
2023-05-02T16:23:08.298Z,47.14
2023-05-02T16:25:36.006Z,49.20
2023-05-02T16:28:03.472Z,50.30
2023-05-02T16:30:30.892Z,49.88
2023-05-02T16:32:58.449Z,52.13
2023-05-02T16:35:26.003Z,51.94
2023-05-02T16:37:53.575Z,51.98
2023-05-02T16:40:21.056Z,52.16
2023-05-02T16:42:48.734Z,51.69
2023-05-02T16:45:17.193Z,50.97
2023-05-02T16:47:44.752Z,50.00
2023-05-02T16:50:12.607Z,52.62
2023-05-02T16:52:40.113Z,54.36
2023-05-02T16:55:07.771Z,54.65
2023-05-02T16:57:35.277Z,53.66
2023-05-02T17:00:03.383Z,55.97
2023-05-02T17:02:31.113Z,56.06
2023-05-02T17:04:58.589Z,56.96
2023-05-02T17:07:26.012Z,58.88
2023-05-02T17:09:55.037Z,58.17
2023-05-02T17:12:22.984Z,58.49
2023-05-02T17:14:51.686Z,59.57
2023-05-02T17:17:22.694Z,61.95
2023-05-02T17:19:51.312Z,61.78
2023-05-02T17:22:19.002Z,66.40
2023-05-02T17:24:48.395Z,63.95
2023-05-02T17:27:15.933Z,66.71
2023-05-02T17:29:43.461Z,67.93
2023-05-02T17:32:11.368Z,70.59
2023-05-02T17:34:39.209Z,72.31
2023-05-02T17:37:07.947Z,71.64
2023-05-02T17:39:35.376Z,72.54
2023-05-02T17:42:02.898Z,74.58
2023-05-02T17:44:31.480Z,74.85
2023-05-02T17:46:59.143Z,73.50
2023-05-02T17:49:26.594Z,73.69
2023-05-02T17:51:54.022Z,75.26
2023-05-02T17:54:21.578Z,73.88
2023-05-02T17:56:50.549Z,73.59
2023-05-02T17:59:18.831Z,74.39
2023-05-02T18:01:46.252Z,74.45
2023-05-02T18:04:14.921Z,74.59
2023-05-02T18:06:42.394Z,74.80
2023-05-02T18:09:09.755Z,76.51
2023-05-02T18:11:37.582Z,75.60
2023-05-02T18:14:06.155Z,75.75
2023-05-02T18:16:36.147Z,75.86
2023-05-02T18:19:03.955Z,76.47
2023-05-02T18:21:33.901Z,75.46
2023-05-02T18:24:01.345Z,75.68
2023-05-02T18:26:28.869Z,76.02
2023-05-02T18:28:57.374Z,74.57
2023-05-02T18:31:24.869Z,73.38
2023-05-02T18:33:54.152Z,75.32
2023-05-02T18:36:25.644Z,76.57
2023-05-02T18:38:53.119Z,75.49
2023-05-02T18:41:20.572Z,75.55
2023-05-02T18:43:48.320Z,75.79
2023-05-02T18:46:15.883Z,78.68
2023-05-02T18:48:43.510Z,79.42
2023-05-02T18:51:10.985Z,82.73
2023-05-02T18:53:38.428Z,83.60
2023-05-02T18:56:12.280Z,86.20
2023-05-02T18:58:39.687Z,87.81
2023-05-02T19:01:16.846Z,88.25
2023-05-02T19:03:44.535Z,88.78
2023-05-02T19:06:12.424Z,89.90
2023-05-02T19:08:40.265Z,88.97
2023-05-02T19:11:09.031Z,89.80
2023-05-02T19:13:36.505Z,89.49
2023-05-02T19:16:03.949Z,89.35
2023-05-02T19:18:31.545Z,89.74
2023-05-02T19:20:59.915Z,91.16
2023-05-02T19:23:27.346Z,91.41
2023-05-02T19:25:54.793Z,91.71
2023-05-02T19:28:22.908Z,91.72
2023-05-02T19:30:51.442Z,92.76
2023-05-02T19:33:19.290Z,93.66
2023-05-02T19:35:47.815Z,94.00
2023-05-02T19:38:15.547Z,95.24
2023-05-02T19:40:42.989Z,94.74
2023-05-02T19:43:10.935Z,96.00
2023-05-02T19:45:38.590Z,96.43
2023-05-02T19:48:07.200Z,95.71
2023-05-02T19:50:34.672Z,95.54
2023-05-02T19:53:04.374Z,97.02
2023-05-02T19:55:31.792Z,97.50
2023-05-02T19:58:00.364Z,97.96
2023-05-02T20:00:27.856Z,97.55
2023-05-02T20:02:55.489Z,98.03
2023-05-02T20:05:23.017Z,99.50
2023-05-02T20:07:50.502Z,100.00
2023-05-02T20:10:18.808Z,100.00
2023-05-02T20:12:46.984Z,100.00
2023-05-02T20:15:15.986Z,100.00
2023-05-02T20:17:43.733Z,100.00
2023-05-02T20:20:11.717Z,100.00
2023-05-02T20:22:39.955Z,100.00
2023-05-02T20:25:08.712Z,100.00
2023-05-02T20:27:36.279Z,100.00
2023-05-02T20:30:04.049Z,100.00
2023-05-02T20:32:33.015Z,100.00
2023-05-02T20:35:00.593Z,100.00
2023-05-02T20:37:28.212Z,100.00
2023-05-02T20:39:55.922Z,100.00
2023-05-02T20:42:25.899Z,100.00
2023-05-02T20:44:54.853Z,100.00
2023-05-02T20:47:22.621Z,100.00
2023-05-02T20:49:50.459Z,100.00
2023-05-02T20:52:17.906Z,100.00
2023-05-02T20:54:45.365Z,100.00
2023-05-02T20:57:16.374Z,100.00
2023-05-02T20:59:44.192Z,100.00
2023-05-02T21:02:13.049Z,100.00
2023-05-02T21:04:41.987Z,100.00
2023-05-02T21:07:09.395Z,100.00
2023-05-02T21:09:36.788Z,100.00
2023-05-02T21:12:04.358Z,100.00
2023-05-02T21:14:31.767Z,100.00
2023-05-02T21:16:59.339Z,100.00
2023-05-02T21:19:26.757Z,100.00
2023-05-02T21:21:54.131Z,100.00
2023-05-02T21:24:21.543Z,100.00
2023-05-02T21:26:48.997Z,100.00
2023-05-02T21:29:16.710Z,100.00
2023-05-02T21:31:44.261Z,100.00
2023-05-02T21:34:11.922Z,100.00
2023-05-02T21:36:39.381Z,100.00
2023-05-02T21:39:06.985Z,100.00
2023-05-02T21:41:34.921Z,100.00
2023-05-02T21:44:02.460Z,100.00
2023-05-02T21:46:29.920Z,100.00
2023-05-02T21:48:57.364Z,100.00
2023-05-02T21:51:24.717Z,100.00
2023-05-02T21:53:53.399Z,100.00
2023-05-02T21:56:20.872Z,100.00
2023-05-02T21:58:51.126Z,100.00
2023-05-02T22:01:18.812Z,100.00
2023-05-02T22:03:46.367Z,100.00
2023-05-02T22:06:14.388Z,100.00
2023-05-02T22:08:41.959Z,100.00
2023-05-02T22:11:09.546Z,100.00
2023-05-02T22:13:37.290Z,100.00
2023-05-02T22:16:04.954Z,100.00
2023-05-02T22:18:32.514Z,100.00
2023-05-02T22:21:02.099Z,100.00
2023-05-02T22:23:31.095Z,100.00
2023-05-02T22:25:58.764Z,100.00
2023-05-02T22:28:26.910Z,100.00
2023-05-02T22:30:54.766Z,100.00
2023-05-02T22:33:22.232Z,100.00
2023-05-02T22:35:49.762Z,100.00
2023-05-02T22:38:17.644Z,100.00
2023-05-02T22:40:45.066Z,100.00
2023-05-02T22:43:12.457Z,100.00
2023-05-02T22:45:40.672Z,100.00
2023-05-02T22:48:08.262Z,100.00
2023-05-02T22:50:35.648Z,100.00
2023-05-02T22:53:03.757Z,100.00
2023-05-02T22:55:31.652Z,100.00
2023-05-02T22:57:59.237Z,100.00
2023-05-02T23:00:26.989Z,100.00
2023-05-02T23:02:54.513Z,100.00
2023-05-02T23:05:22.221Z,100.00
2023-05-02T23:07:50.048Z,100.00
2023-05-02T23:10:17.453Z,100.00
2023-05-02T23:12:44.903Z,100.00
2023-05-02T23:15:12.604Z,100.00
2023-05-02T23:17:41.253Z,100.00
2023-05-02T23:20:10.165Z,100.00
2023-05-02T23:22:38.202Z,100.00
2023-05-02T23:25:06.890Z,100.00
2023-05-02T23:27:34.347Z,100.00
2023-05-02T23:30:02.044Z,100.00
2023-05-02T23:32:29.805Z,100.00
2023-05-02T23:34:57.628Z,100.00
2023-05-02T23:37:24.997Z,100.00
2023-05-02T23:39:52.419Z,100.00
2023-05-02T23:42:20.068Z,100.00
2023-05-02T23:44:47.483Z,100.00
2023-05-02T23:47:14.851Z,100.00
2023-05-02T23:49:42.311Z,100.00
2023-05-02T23:52:09.674Z,100.00
2023-05-02T23:54:37.083Z,100.00
2023-05-02T23:57:04.507Z,100.00
2023-05-02T23:59:31.857Z,100.00
